sensor_id;sensor_type;location;lat;lon;timestamp;temperature;humidity
73322;DHT22;61549;37.044;22.128;2023-02-15T00:01:54;12.10;40.60
73322;DHT22;61549;37.044;22.128;2023-02-15T00:04:23;12.10;41.60
73322;DHT22;61549;37.044;22.128;2023-02-15T00:06:49;12.00;41.60
73322;DHT22;61549;37.044;22.128;2023-02-15T00:09:16;12.00;41.40
73322;DHT22;61549;37.044;22.128;2023-02-15T00:11:42;11.90;41.40
73322;DHT22;61549;37.044;22.128;2023-02-15T00:14:25;11.90;40.60
73322;DHT22;61549;37.044;22.128;2023-02-15T00:16:52;11.90;41.00
73322;DHT22;61549;37.044;22.128;2023-02-15T00:19:20;12.00;41.30
73322;DHT22;61549;37.044;22.128;2023-02-15T00:21:47;12.00;41.20
73322;DHT22;61549;37.044;22.128;2023-02-15T00:24:15;11.90;40.30
73322;DHT22;61549;37.044;22.128;2023-02-15T00:26:42;11.80;40.30
73322;DHT22;61549;37.044;22.128;2023-02-15T00:29:10;11.70;40.00
73322;DHT22;61549;37.044;22.128;2023-02-15T00:31:36;11.70;39.70
73322;DHT22;61549;37.044;22.128;2023-02-15T00:34:06;11.80;39.70
73322;DHT22;61549;37.044;22.128;2023-02-15T00:36:33;11.80;40.20
73322;DHT22;61549;37.044;22.128;2023-02-15T00:38:59;11.80;40.20
73322;DHT22;61549;37.044;22.128;2023-02-15T00:41:25;11.80;40.60
73322;DHT22;61549;37.044;22.128;2023-02-15T00:43:51;11.80;40.50
73322;DHT22;61549;37.044;22.128;2023-02-15T00:46:17;11.80;40.50
73322;DHT22;61549;37.044;22.128;2023-02-15T00:48:43;11.80;39.70
73322;DHT22;61549;37.044;22.128;2023-02-15T00:51:11;11.80;39.30
73322;DHT22;61549;37.044;22.128;2023-02-15T00:53:36;11.80;39.30
73322;DHT22;61549;37.044;22.128;2023-02-15T00:56:02;11.80;39.00
73322;DHT22;61549;37.044;22.128;2023-02-15T00:58:28;11.90;38.50
73322;DHT22;61549;37.044;22.128;2023-02-15T01:00:54;12.00;38.50
73322;DHT22;61549;37.044;22.128;2023-02-15T01:03:20;12.00;38.60
73322;DHT22;61549;37.044;22.128;2023-02-15T01:05:48;12.10;38.90
73322;DHT22;61549;37.044;22.128;2023-02-15T01:08:14;12.10;38.60
73322;DHT22;61549;37.044;22.128;2023-02-15T01:10:40;12.00;38.70
73322;DHT22;61549;37.044;22.128;2023-02-15T01:13:07;12.00;38.10
73322;DHT22;61549;37.044;22.128;2023-02-15T01:15:34;12.00;38.10
73322;DHT22;61549;37.044;22.128;2023-02-15T01:18:00;12.00;38.10
73322;DHT22;61549;37.044;22.128;2023-02-15T01:20:28;12.00;38.40
73322;DHT22;61549;37.044;22.128;2023-02-15T01:22:54;12.00;38.10
73322;DHT22;61549;37.044;22.128;2023-02-15T01:25:22;12.00;38.10
73322;DHT22;61549;37.044;22.128;2023-02-15T01:27:48;12.00;38.10
73322;DHT22;61549;37.044;22.128;2023-02-15T01:30:15;12.00;37.40
73322;DHT22;61549;37.044;22.128;2023-02-15T01:32:42;12.00;37.30
73322;DHT22;61549;37.044;22.128;2023-02-15T01:35:09;12.10;37.70
73322;DHT22;61549;37.044;22.128;2023-02-15T01:37:35;12.10;37.70
73322;DHT22;61549;37.044;22.128;2023-02-15T01:40:03;12.10;37.70
73322;DHT22;61549;37.044;22.128;2023-02-15T01:42:30;12.00;37.90
73322;DHT22;61549;37.044;22.128;2023-02-15T01:45:04;12.00;38.90
73322;DHT22;61549;37.044;22.128;2023-02-15T01:53:19;11.90;38.50
73322;DHT22;61549;37.044;22.128;2023-02-15T01:55:59;11.90;39.00
73322;DHT22;61549;37.044;22.128;2023-02-15T01:58:27;11.90;39.60
73322;DHT22;61549;37.044;22.128;2023-02-15T02:00:55;11.80;39.30
73322;DHT22;61549;37.044;22.128;2023-02-15T02:06:35;11.80;39.10
73322;DHT22;61549;37.044;22.128;2023-02-15T02:09:02;11.70;39.40
73322;DHT22;61549;37.044;22.128;2023-02-15T02:11:28;11.70;39.00
73322;DHT22;61549;37.044;22.128;2023-02-15T02:13:55;11.60;38.70
73322;DHT22;61549;37.044;22.128;2023-02-15T02:16:32;11.60;38.90
73322;DHT22;61549;37.044;22.128;2023-02-15T02:34:30;11.50;40.60
73322;DHT22;61549;37.044;22.128;2023-02-15T02:43:21;11.20;40.70
73322;DHT22;61549;37.044;22.128;2023-02-15T02:48:46;11.20;41.20
73322;DHT22;61549;37.044;22.128;2023-02-15T02:51:36;11.00;40.80
73322;DHT22;61549;37.044;22.128;2023-02-15T02:54:05;11.00;40.30
73322;DHT22;61549;37.044;22.128;2023-02-15T02:56:41;11.00;39.50
73322;DHT22;61549;37.044;22.128;2023-02-15T02:59:19;11.00;37.70
73322;DHT22;61549;37.044;22.128;2023-02-15T03:01:53;11.10;37.70
73322;DHT22;61549;37.044;22.128;2023-02-15T03:04:26;11.20;37.40
73322;DHT22;61549;37.044;22.128;2023-02-15T03:06:58;11.30;37.30
73322;DHT22;61549;37.044;22.128;2023-02-15T03:09:38;11.50;37.40
73322;DHT22;61549;37.044;22.128;2023-02-15T03:12:24;11.70;37.60
73322;DHT22;61549;37.044;22.128;2023-02-15T03:15:01;11.80;38.20
73322;DHT22;61549;37.044;22.128;2023-02-15T03:17:31;11.80;39.00
73322;DHT22;61549;37.044;22.128;2023-02-15T03:20:10;11.80;38.60
73322;DHT22;61549;37.044;22.128;2023-02-15T03:22:48;11.80;39.50
73322;DHT22;61549;37.044;22.128;2023-02-15T03:25:22;11.70;38.40
73322;DHT22;61549;37.044;22.128;2023-02-15T03:27:54;11.80;37.60
73322;DHT22;61549;37.044;22.128;2023-02-15T03:30:22;11.80;37.80
73322;DHT22;61549;37.044;22.128;2023-02-15T03:32:50;11.80;37.40
73322;DHT22;61549;37.044;22.128;2023-02-15T03:35:21;11.90;37.50
73322;DHT22;61549;37.044;22.128;2023-02-15T03:37:59;11.90;38.20
73322;DHT22;61549;37.044;22.128;2023-02-15T03:40:31;11.80;38.40
73322;DHT22;61549;37.044;22.128;2023-02-15T03:43:30;11.70;38.30
73322;DHT22;61549;37.044;22.128;2023-02-15T03:46:05;11.60;38.50
73322;DHT22;61549;37.044;22.128;2023-02-15T03:48:37;11.60;38.60
73322;DHT22;61549;37.044;22.128;2023-02-15T03:51:08;11.60;37.90
73322;DHT22;61549;37.044;22.128;2023-02-15T03:53:54;11.50;37.20
73322;DHT22;61549;37.044;22.128;2023-02-15T03:56:21;11.50;37.50
73322;DHT22;61549;37.044;22.128;2023-02-15T03:58:47;11.60;37.70
73322;DHT22;61549;37.044;22.128;2023-02-15T04:04:21;11.50;39.60
73322;DHT22;61549;37.044;22.128;2023-02-15T04:06:48;11.50;39.60
73322;DHT22;61549;37.044;22.128;2023-02-15T04:09:14;11.50;38.50
73322;DHT22;61549;37.044;22.128;2023-02-15T04:11:58;11.40;38.00
73322;DHT22;61549;37.044;22.128;2023-02-15T04:14:24;11.40;37.50
73322;DHT22;61549;37.044;22.128;2023-02-15T04:17:09;11.40;37.10
73322;DHT22;61549;37.044;22.128;2023-02-15T04:19:35;11.50;37.40
73322;DHT22;61549;37.044;22.128;2023-02-15T04:22:20;11.50;38.30
73322;DHT22;61549;37.044;22.128;2023-02-15T04:25:04;11.70;37.70
73322;DHT22;61549;37.044;22.128;2023-02-15T04:27:41;11.60;37.30
73322;DHT22;61549;37.044;22.128;2023-02-15T04:30:08;11.50;37.30
73322;DHT22;61549;37.044;22.128;2023-02-15T04:32:35;11.50;36.80
73322;DHT22;61549;37.044;22.128;2023-02-15T04:35:01;11.50;36.80
73322;DHT22;61549;37.044;22.128;2023-02-15T04:37:27;11.70;37.10
73322;DHT22;61549;37.044;22.128;2023-02-15T04:39:53;11.70;37.40
73322;DHT22;61549;37.044;22.128;2023-02-15T04:42:19;11.70;37.80
73322;DHT22;61549;37.044;22.128;2023-02-15T04:44:45;11.60;37.80
73322;DHT22;61549;37.044;22.128;2023-02-15T04:47:10;11.60;38.10
73322;DHT22;61549;37.044;22.128;2023-02-15T04:49:36;11.50;37.30
73322;DHT22;61549;37.044;22.128;2023-02-15T04:52:02;11.40;36.30
73322;DHT22;61549;37.044;22.128;2023-02-15T04:54:28;11.40;35.90
73322;DHT22;61549;37.044;22.128;2023-02-15T04:56:54;11.40;35.60
73322;DHT22;61549;37.044;22.128;2023-02-15T04:59:20;11.50;35.70
73322;DHT22;61549;37.044;22.128;2023-02-15T05:01:46;11.60;36.10
73322;DHT22;61549;37.044;22.128;2023-02-15T05:04:11;11.70;35.80
73322;DHT22;61549;37.044;22.128;2023-02-15T05:06:37;11.70;35.40
73322;DHT22;61549;37.044;22.128;2023-02-15T05:09:03;11.80;34.90
73322;DHT22;61549;37.044;22.128;2023-02-15T05:11:29;11.90;35.30
73322;DHT22;61549;37.044;22.128;2023-02-15T05:13:55;11.80;35.00
73322;DHT22;61549;37.044;22.128;2023-02-15T05:16:21;11.90;35.80
73322;DHT22;61549;37.044;22.128;2023-02-15T05:18:46;11.90;35.90
73322;DHT22;61549;37.044;22.128;2023-02-15T05:21:12;12.00;35.90
73322;DHT22;61549;37.044;22.128;2023-02-15T05:23:39;12.00;35.80
73322;DHT22;61549;37.044;22.128;2023-02-15T05:26:05;12.00;35.50
73322;DHT22;61549;37.044;22.128;2023-02-15T05:28:49;12.00;35.90
73322;DHT22;61549;37.044;22.128;2023-02-15T05:31:17;11.90;35.70
73322;DHT22;61549;37.044;22.128;2023-02-15T05:33:44;12.00;35.70
73322;DHT22;61549;37.044;22.128;2023-02-15T05:36:16;12.00;35.90
73322;DHT22;61549;37.044;22.128;2023-02-15T05:38:42;12.10;35.70
73322;DHT22;61549;37.044;22.128;2023-02-15T05:41:09;12.10;36.00
73322;DHT22;61549;37.044;22.128;2023-02-15T05:43:36;12.10;36.10
73322;DHT22;61549;37.044;22.128;2023-02-15T05:46:03;12.10;36.40
73322;DHT22;61549;37.044;22.128;2023-02-15T05:48:34;12.10;35.90
73322;DHT22;61549;37.044;22.128;2023-02-15T05:51:12;11.90;35.30
73322;DHT22;61549;37.044;22.128;2023-02-15T05:53:39;11.60;35.50
73322;DHT22;61549;37.044;22.128;2023-02-15T05:56:07;11.70;35.90
73322;DHT22;61549;37.044;22.128;2023-02-15T05:58:38;11.80;36.20
73322;DHT22;61549;37.044;22.128;2023-02-15T06:01:12;11.90;35.90
73322;DHT22;61549;37.044;22.128;2023-02-15T06:03:41;12.00;35.90
73322;DHT22;61549;37.044;22.128;2023-02-15T06:06:08;12.10;35.80
73322;DHT22;61549;37.044;22.128;2023-02-15T06:08:35;12.10;35.80
73322;DHT22;61549;37.044;22.128;2023-02-15T06:11:01;12.10;35.70
73322;DHT22;61549;37.044;22.128;2023-02-15T06:13:27;12.20;36.20
73322;DHT22;61549;37.044;22.128;2023-02-15T06:15:53;12.20;35.90
73322;DHT22;61549;37.044;22.128;2023-02-15T06:18:19;12.10;35.70
73322;DHT22;61549;37.044;22.128;2023-02-15T06:20:48;11.90;36.40
73322;DHT22;61549;37.044;22.128;2023-02-15T06:23:14;11.90;36.50
73322;DHT22;61549;37.044;22.128;2023-02-15T06:25:40;12.00;36.80
73322;DHT22;61549;37.044;22.128;2023-02-15T06:28:06;12.20;36.60
73322;DHT22;61549;37.044;22.128;2023-02-15T06:30:32;12.40;36.10
73322;DHT22;61549;37.044;22.128;2023-02-15T06:32:58;12.70;36.20
73322;DHT22;61549;37.044;22.128;2023-02-15T06:35:25;13.10;36.40
73322;DHT22;61549;37.044;22.128;2023-02-15T06:37:51;13.40;36.30
73322;DHT22;61549;37.044;22.128;2023-02-15T06:40:17;13.70;35.90
73322;DHT22;61549;37.044;22.128;2023-02-15T06:42:43;14.10;35.30
73322;DHT22;61549;37.044;22.128;2023-02-15T06:45:09;14.20;35.00
73322;DHT22;61549;37.044;22.128;2023-02-15T06:47:36;14.40;38.30
73322;DHT22;61549;37.044;22.128;2023-02-15T06:50:03;14.60;37.90
73322;DHT22;61549;37.044;22.128;2023-02-15T06:52:29;14.70;36.00
73322;DHT22;61549;37.044;22.128;2023-02-15T06:54:55;14.80;35.50
73322;DHT22;61549;37.044;22.128;2023-02-15T06:57:21;15.10;35.10
73322;DHT22;61549;37.044;22.128;2023-02-15T06:59:47;15.30;34.70
73322;DHT22;61549;37.044;22.128;2023-02-15T07:02:15;15.50;34.40
73322;DHT22;61549;37.044;22.128;2023-02-15T07:04:41;15.70;34.50
73322;DHT22;61549;37.044;22.128;2023-02-15T07:07:11;15.70;35.20
73322;DHT22;61549;37.044;22.128;2023-02-15T07:09:37;15.80;36.80
73322;DHT22;61549;37.044;22.128;2023-02-15T07:12:06;16.00;37.00
73322;DHT22;61549;37.044;22.128;2023-02-15T07:14:51;16.00;35.90
73322;DHT22;61549;37.044;22.128;2023-02-15T07:17:17;16.20;36.90
73322;DHT22;61549;37.044;22.128;2023-02-15T07:19:43;16.30;33.60
73322;DHT22;61549;37.044;22.128;2023-02-15T07:22:09;16.40;35.00
73322;DHT22;61549;37.044;22.128;2023-02-15T07:24:35;16.60;34.60
73322;DHT22;61549;37.044;22.128;2023-02-15T07:27:01;16.70;34.80
73322;DHT22;61549;37.044;22.128;2023-02-15T07:29:27;16.90;34.90
73322;DHT22;61549;37.044;22.128;2023-02-15T07:31:53;17.00;34.90
73322;DHT22;61549;37.044;22.128;2023-02-15T07:34:18;16.90;34.50
73322;DHT22;61549;37.044;22.128;2023-02-15T07:36:44;17.10;35.00
73322;DHT22;61549;37.044;22.128;2023-02-15T07:39:11;17.20;35.30
73322;DHT22;61549;37.044;22.128;2023-02-15T07:41:37;17.30;36.80
73322;DHT22;61549;37.044;22.128;2023-02-15T07:44:03;17.20;38.10
73322;DHT22;61549;37.044;22.128;2023-02-15T07:46:29;17.10;37.90
73322;DHT22;61549;37.044;22.128;2023-02-15T07:48:55;17.10;37.70
73322;DHT22;61549;37.044;22.128;2023-02-15T07:51:21;17.20;37.50
73322;DHT22;61549;37.044;22.128;2023-02-15T07:53:47;17.20;37.20
73322;DHT22;61549;37.044;22.128;2023-02-15T07:56:14;17.40;37.40
73322;DHT22;61549;37.044;22.128;2023-02-15T07:58:40;17.40;36.30
73322;DHT22;61549;37.044;22.128;2023-02-15T08:01:28;17.60;36.40
73322;DHT22;61549;37.044;22.128;2023-02-15T08:03:55;17.70;36.50
73322;DHT22;61549;37.044;22.128;2023-02-15T08:06:23;17.80;36.40
73322;DHT22;61549;37.044;22.128;2023-02-15T08:08:49;17.90;36.30
73322;DHT22;61549;37.044;22.128;2023-02-15T08:11:23;18.00;35.50
73322;DHT22;61549;37.044;22.128;2023-02-15T08:14:20;18.20;32.70
73322;DHT22;61549;37.044;22.128;2023-02-15T08:16:52;18.40;33.90
73322;DHT22;61549;37.044;22.128;2023-02-15T08:19:23;18.30;34.00
73322;DHT22;61549;37.044;22.128;2023-02-15T08:21:52;18.30;32.70
73322;DHT22;61549;37.044;22.128;2023-02-15T08:24:21;18.20;32.90
73322;DHT22;61549;37.044;22.128;2023-02-15T08:26:48;18.40;32.90
73322;DHT22;61549;37.044;22.128;2023-02-15T08:29:22;18.40;32.50
73322;DHT22;61549;37.044;22.128;2023-02-15T08:31:49;18.50;33.80
73322;DHT22;61549;37.044;22.128;2023-02-15T08:34:17;18.60;33.70
73322;DHT22;61549;37.044;22.128;2023-02-15T08:36:44;18.70;33.10
73322;DHT22;61549;37.044;22.128;2023-02-15T08:39:14;18.70;33.60
73322;DHT22;61549;37.044;22.128;2023-02-15T08:41:43;18.60;33.80
73322;DHT22;61549;37.044;22.128;2023-02-15T08:44:10;18.40;33.90
73322;DHT22;61549;37.044;22.128;2023-02-15T08:46:41;18.20;33.60
73322;DHT22;61549;37.044;22.128;2023-02-15T08:49:07;18.10;34.20
73322;DHT22;61549;37.044;22.128;2023-02-15T08:51:36;18.10;35.30
73322;DHT22;61549;37.044;22.128;2023-02-15T08:54:04;18.20;35.20
73322;DHT22;61549;37.044;22.128;2023-02-15T08:56:36;18.40;35.30
73322;DHT22;61549;37.044;22.128;2023-02-15T08:59:16;18.30;35.30
73322;DHT22;61549;37.044;22.128;2023-02-15T09:01:42;18.30;35.10
73322;DHT22;61549;37.044;22.128;2023-02-15T09:04:08;18.40;35.10
73322;DHT22;61549;37.044;22.128;2023-02-15T09:06:35;18.30;34.80
73322;DHT22;61549;37.044;22.128;2023-02-15T09:09:01;18.50;35.10
73322;DHT22;61549;37.044;22.128;2023-02-15T09:11:30;18.60;36.00
73322;DHT22;61549;37.044;22.128;2023-02-15T09:14:04;18.60;35.30
73322;DHT22;61549;37.044;22.128;2023-02-15T09:16:32;18.40;33.80
73322;DHT22;61549;37.044;22.128;2023-02-15T09:19:00;18.40;33.60
73322;DHT22;61549;37.044;22.128;2023-02-15T09:21:28;18.50;33.90
73322;DHT22;61549;37.044;22.128;2023-02-15T09:24:00;18.40;34.10
73322;DHT22;61549;37.044;22.128;2023-02-15T09:26:28;18.50;33.50
73322;DHT22;61549;37.044;22.128;2023-02-15T09:28:56;18.60;33.50
73322;DHT22;61549;37.044;22.128;2023-02-15T09:31:25;18.70;33.20
73322;DHT22;61549;37.044;22.128;2023-02-15T09:33:51;18.80;32.00
73322;DHT22;61549;37.044;22.128;2023-02-15T09:36:26;18.60;31.80
73322;DHT22;61549;37.044;22.128;2023-02-15T09:38:58;18.60;32.90
73322;DHT22;61549;37.044;22.128;2023-02-15T09:53:29;18.80;32.10
73322;DHT22;61549;37.044;22.128;2023-02-15T09:56:02;18.80;30.50
73322;DHT22;61549;37.044;22.128;2023-02-15T09:58:55;18.70;31.40
73322;DHT22;61549;37.044;22.128;2023-02-15T10:13:28;18.90;32.70
73322;DHT22;61549;37.044;22.128;2023-02-15T10:18:55;19.10;32.40
73322;DHT22;61549;37.044;22.128;2023-02-15T10:21:37;19.00;32.50
73322;DHT22;61549;37.044;22.128;2023-02-15T10:26:45;19.20;32.60
73322;DHT22;61549;37.044;22.128;2023-02-15T10:29:36;19.30;31.90
73322;DHT22;61549;37.044;22.128;2023-02-15T10:32:27;19.40;32.60
73322;DHT22;61549;37.044;22.128;2023-02-15T10:35:12;19.40;32.20
73322;DHT22;61549;37.044;22.128;2023-02-15T10:40:32;19.10;32.70
73322;DHT22;61549;37.044;22.128;2023-02-15T10:48:52;19.30;32.30
73322;DHT22;61549;37.044;22.128;2023-02-15T10:51:35;19.30;33.50
73322;DHT22;61549;37.044;22.128;2023-02-15T10:54:32;19.20;33.10
73322;DHT22;61549;37.044;22.128;2023-02-15T10:57:27;19.00;33.20
73322;DHT22;61549;37.044;22.128;2023-02-15T11:00:27;19.20;32.90
73322;DHT22;61549;37.044;22.128;2023-02-15T11:06:04;19.00;33.10
73322;DHT22;61549;37.044;22.128;2023-02-15T11:08:34;19.00;32.90
73322;DHT22;61549;37.044;22.128;2023-02-15T11:11:05;19.00;32.40
73322;DHT22;61549;37.044;22.128;2023-02-15T11:13:37;19.10;32.70
73322;DHT22;61549;37.044;22.128;2023-02-15T11:16:13;19.20;32.20
73322;DHT22;61549;37.044;22.128;2023-02-15T11:18:51;19.20;32.20
73322;DHT22;61549;37.044;22.128;2023-02-15T11:21:32;19.20;32.40
73322;DHT22;61549;37.044;22.128;2023-02-15T11:24:13;19.30;32.60
73322;DHT22;61549;37.044;22.128;2023-02-15T11:26:48;19.10;32.10
73322;DHT22;61549;37.044;22.128;2023-02-15T11:29:37;19.20;32.60
73322;DHT22;61549;37.044;22.128;2023-02-15T11:32:21;19.40;33.50
73322;DHT22;61549;37.044;22.128;2023-02-15T11:37:30;19.70;33.80
73322;DHT22;61549;37.044;22.128;2023-02-15T11:39:57;19.90;32.80
73322;DHT22;61549;37.044;22.128;2023-02-15T11:42:26;19.80;32.50
73322;DHT22;61549;37.044;22.128;2023-02-15T11:44:58;19.50;32.40
73322;DHT22;61549;37.044;22.128;2023-02-15T11:47:25;19.50;32.30
73322;DHT22;61549;37.044;22.128;2023-02-15T11:49:50;19.50;33.20
73322;DHT22;61549;37.044;22.128;2023-02-15T11:52:17;19.70;33.40
73322;DHT22;61549;37.044;22.128;2023-02-15T11:54:50;19.70;33.30
73322;DHT22;61549;37.044;22.128;2023-02-15T11:57:36;19.90;32.70
73322;DHT22;61549;37.044;22.128;2023-02-15T12:00:31;20.00;33.50
73322;DHT22;61549;37.044;22.128;2023-02-15T12:06:02;20.00;32.90
73322;DHT22;61549;37.044;22.128;2023-02-15T12:08:38;19.90;34.20
73322;DHT22;61549;37.044;22.128;2023-02-15T12:11:19;20.00;34.40
73322;DHT22;61549;37.044;22.128;2023-02-15T12:14:13;20.00;34.30
73322;DHT22;61549;37.044;22.128;2023-02-15T12:16:54;19.80;34.00
73322;DHT22;61549;37.044;22.128;2023-02-15T12:19:38;19.90;33.60
73322;DHT22;61549;37.044;22.128;2023-02-15T12:22:22;19.90;33.90
73322;DHT22;61549;37.044;22.128;2023-02-15T12:24:52;19.70;33.40
73322;DHT22;61549;37.044;22.128;2023-02-15T12:27:19;19.70;33.10
73322;DHT22;61549;37.044;22.128;2023-02-15T12:29:50;19.70;34.00
73322;DHT22;61549;37.044;22.128;2023-02-15T12:32:24;19.70;34.00
73322;DHT22;61549;37.044;22.128;2023-02-15T12:34:52;19.70;33.70
73322;DHT22;61549;37.044;22.128;2023-02-15T12:37:28;19.70;33.90
73322;DHT22;61549;37.044;22.128;2023-02-15T12:40:01;19.60;34.00
73322;DHT22;61549;37.044;22.128;2023-02-15T12:42:41;19.70;33.60
73322;DHT22;61549;37.044;22.128;2023-02-15T12:50:42;19.70;35.00
73322;DHT22;61549;37.044;22.128;2023-02-15T12:53:31;19.60;34.80
73322;DHT22;61549;37.044;22.128;2023-02-15T12:56:00;19.70;34.20
73322;DHT22;61549;37.044;22.128;2023-02-15T12:58:31;19.90;34.10
73322;DHT22;61549;37.044;22.128;2023-02-15T13:04:01;20.00;33.60
73322;DHT22;61549;37.044;22.128;2023-02-15T13:06:31;20.10;34.50
73322;DHT22;61549;37.044;22.128;2023-02-15T13:09:05;20.00;34.40
73322;DHT22;61549;37.044;22.128;2023-02-15T13:11:31;20.10;34.30
73322;DHT22;61549;37.044;22.128;2023-02-15T13:14:02;20.30;34.50
73322;DHT22;61549;37.044;22.128;2023-02-15T13:16:34;20.50;33.50
73322;DHT22;61549;37.044;22.128;2023-02-15T13:21:50;20.90;32.80
73322;DHT22;61549;37.044;22.128;2023-02-15T13:24:39;21.10;32.50
73322;DHT22;61549;37.044;22.128;2023-02-15T13:27:12;21.20;32.20
73322;DHT22;61549;37.044;22.128;2023-02-15T13:29:40;21.40;29.10
73322;DHT22;61549;37.044;22.128;2023-02-15T13:32:28;21.50;30.00
73322;DHT22;61549;37.044;22.128;2023-02-15T13:34:59;21.50;29.40
73322;DHT22;61549;37.044;22.128;2023-02-15T13:40:33;21.50;28.90
73322;DHT22;61549;37.044;22.128;2023-02-15T13:43:19;21.40;29.50
73322;DHT22;61549;37.044;22.128;2023-02-15T13:46:06;21.50;30.90
73322;DHT22;61549;37.044;22.128;2023-02-15T14:16:17;19.70;34.70
73322;DHT22;61549;37.044;22.128;2023-02-15T14:22:08;19.10;35.90
73322;DHT22;61549;37.044;22.128;2023-02-15T14:27:27;18.30;36.80
73322;DHT22;61549;37.044;22.128;2023-02-15T14:30:03;18.20;39.30
73322;DHT22;61549;37.044;22.128;2023-02-15T14:32:42;18.10;39.60
73322;DHT22;61549;37.044;22.128;2023-02-15T14:35:16;17.80;39.40
73322;DHT22;61549;37.044;22.128;2023-02-15T14:38:00;17.80;40.00
73322;DHT22;61549;37.044;22.128;2023-02-15T14:45:54;18.20;38.50
73322;DHT22;61549;37.044;22.128;2023-02-15T14:48:28;18.00;38.70
73322;DHT22;61549;37.044;22.128;2023-02-15T14:50:56;18.00;39.40
73322;DHT22;61549;37.044;22.128;2023-02-15T14:53:34;18.00;38.70
73322;DHT22;61549;37.044;22.128;2023-02-15T14:56:16;18.10;38.50
73322;DHT22;61549;37.044;22.128;2023-02-15T15:01:29;17.90;39.10
73322;DHT22;61549;37.044;22.128;2023-02-15T15:03:59;18.00;39.00
73322;DHT22;61549;37.044;22.128;2023-02-15T15:06:32;18.00;39.00
73322;DHT22;61549;37.044;22.128;2023-02-15T15:09:10;18.20;39.10
73322;DHT22;61549;37.044;22.128;2023-02-15T15:11:42;18.20;39.00
73322;DHT22;61549;37.044;22.128;2023-02-15T15:14:09;18.30;38.50
73322;DHT22;61549;37.044;22.128;2023-02-15T15:19:02;18.10;38.40
73322;DHT22;61549;37.044;22.128;2023-02-15T15:38:45;18.20;38.40
73322;DHT22;61549;37.044;22.128;2023-02-15T15:47:11;18.10;38.40
73322;DHT22;61549;37.044;22.128;2023-02-15T15:49:40;18.30;38.60
73322;DHT22;61549;37.044;22.128;2023-02-15T15:52:15;18.30;38.60
73322;DHT22;61549;37.044;22.128;2023-02-15T15:54:43;18.40;39.40
73322;DHT22;61549;37.044;22.128;2023-02-15T15:57:34;18.40;39.20
73322;DHT22;61549;37.044;22.128;2023-02-15T16:00:00;18.30;39.80
73322;DHT22;61549;37.044;22.128;2023-02-15T16:02:27;18.20;40.70
73322;DHT22;61549;37.044;22.128;2023-02-15T16:04:53;18.10;41.20
73322;DHT22;61549;37.044;22.128;2023-02-15T16:07:20;18.10;42.10
73322;DHT22;61549;37.044;22.128;2023-02-15T16:09:59;17.90;42.20
73322;DHT22;61549;37.044;22.128;2023-02-15T16:12:31;17.80;42.50
73322;DHT22;61549;37.044;22.128;2023-02-15T16:15:02;17.60;43.00
73322;DHT22;61549;37.044;22.128;2023-02-15T16:17:31;17.50;43.60
73322;DHT22;61549;37.044;22.128;2023-02-15T16:20:17;17.30;44.10
73322;DHT22;61549;37.044;22.128;2023-02-15T16:22:49;17.20;44.20
73322;DHT22;61549;37.044;22.128;2023-02-15T16:25:31;17.10;44.80
73322;DHT22;61549;37.044;22.128;2023-02-15T16:28:10;17.00;44.80
73322;DHT22;61549;37.044;22.128;2023-02-15T16:30:37;16.90;45.20
73322;DHT22;61549;37.044;22.128;2023-02-15T16:33:15;16.80;45.20
73322;DHT22;61549;37.044;22.128;2023-02-15T16:35:56;16.80;45.30
73322;DHT22;61549;37.044;22.128;2023-02-15T16:41:20;16.60;45.70
73322;DHT22;61549;37.044;22.128;2023-02-15T16:43:49;16.50;45.70
73322;DHT22;61549;37.044;22.128;2023-02-15T16:48:48;16.40;45.70
73322;DHT22;61549;37.044;22.128;2023-02-15T16:51:25;16.30;45.80
73322;DHT22;61549;37.044;22.128;2023-02-15T16:53:53;16.30;46.10
73322;DHT22;61549;37.044;22.128;2023-02-15T16:56:29;16.20;46.00
73322;DHT22;61549;37.044;22.128;2023-02-15T16:59:14;16.20;45.70
73322;DHT22;61549;37.044;22.128;2023-02-15T17:01:41;16.10;45.40
73322;DHT22;61549;37.044;22.128;2023-02-15T17:07:06;15.90;45.20
73322;DHT22;61549;37.044;22.128;2023-02-15T17:09:32;16.00;45.10
73322;DHT22;61549;37.044;22.128;2023-02-15T17:12:00;16.00;45.20
73322;DHT22;61549;37.044;22.128;2023-02-15T17:14:31;15.90;45.20
73322;DHT22;61549;37.044;22.128;2023-02-15T17:17:13;15.90;45.10
73322;DHT22;61549;37.044;22.128;2023-02-15T17:20:00;15.90;44.80
73322;DHT22;61549;37.044;22.128;2023-02-15T17:22:27;15.90;44.70
73322;DHT22;61549;37.044;22.128;2023-02-15T17:25:02;15.90;44.50
73322;DHT22;61549;37.044;22.128;2023-02-15T17:27:31;15.80;44.50
73322;DHT22;61549;37.044;22.128;2023-02-15T17:30:11;15.90;44.50
73322;DHT22;61549;37.044;22.128;2023-02-15T17:32:53;15.80;44.20
73322;DHT22;61549;37.044;22.128;2023-02-15T17:35:25;15.90;44.20
73322;DHT22;61549;37.044;22.128;2023-02-15T17:38:19;15.80;44.10
73322;DHT22;61549;37.044;22.128;2023-02-15T17:40:46;15.80;44.20
73322;DHT22;61549;37.044;22.128;2023-02-15T17:43:12;15.70;44.40
73322;DHT22;61549;37.044;22.128;2023-02-15T17:45:44;15.70;44.40
73322;DHT22;61549;37.044;22.128;2023-02-15T17:48:21;15.80;44.40
73322;DHT22;61549;37.044;22.128;2023-02-15T17:50:48;15.80;44.30
73322;DHT22;61549;37.044;22.128;2023-02-15T17:53:17;15.80;44.10
73322;DHT22;61549;37.044;22.128;2023-02-15T17:55:49;15.80;44.00
73322;DHT22;61549;37.044;22.128;2023-02-15T17:58:19;15.80;43.90
73322;DHT22;61549;37.044;22.128;2023-02-15T18:00:54;15.80;43.70
73322;DHT22;61549;37.044;22.128;2023-02-15T18:03:45;15.80;43.60
73322;DHT22;61549;37.044;22.128;2023-02-15T18:06:30;15.70;43.30
73322;DHT22;61549;37.044;22.128;2023-02-15T18:09:17;15.70;43.40
73322;DHT22;61549;37.044;22.128;2023-02-15T18:14:49;15.70;43.50
73322;DHT22;61549;37.044;22.128;2023-02-15T18:17:16;15.60;43.70
73322;DHT22;61549;37.044;22.128;2023-02-15T18:19:44;15.60;43.60
73322;DHT22;61549;37.044;22.128;2023-02-15T18:22:12;15.50;43.50
73322;DHT22;61549;37.044;22.128;2023-02-15T18:24:38;15.50;43.00
73322;DHT22;61549;37.044;22.128;2023-02-15T18:27:04;15.40;43.10
73322;DHT22;61549;37.044;22.128;2023-02-15T18:29:31;15.40;43.00
73322;DHT22;61549;37.044;22.128;2023-02-15T18:31:59;15.40;43.00
73322;DHT22;61549;37.044;22.128;2023-02-15T18:34:37;15.40;43.10
73322;DHT22;61549;37.044;22.128;2023-02-15T18:37:05;15.30;43.10
73322;DHT22;61549;37.044;22.128;2023-02-15T18:39:38;15.30;43.10